Bryan, Texas
Current Conditions -  °F | °C
As of 10:15 AM on Thursday 29 Jan 2015 (Local Time) from KCFD Reporting Station
Broken Clouds Broken Clouds  
Wind Chill: 65°   Ceiling: 1500
Heat Index: 65°   Visibility: 10mi
Dew Point: 58°   Wind: 10mph
Humidity: 77%   Direction: 230°SW
Pressure: 30.28"   Gusts: NA
Location:  30.67°N, 96.37°W
Report Text: KCFD 291615Z AUTO 23009KT 10SM BKN015 18/14 A3028 RMK AO2 T01830142
Loading
Personal Weather Stations






























Interactive Weather Map New forecast layout! Learn more

10-Day Weather Forecast

Advertisements
Track Severe Weather on mobile